Pagrindinis puslapis
METAR-TAF:

METAR-TAF

Oro uostai :

Sainte-Marie, Madagaskaras

platuma: 17-05S, ilguma: 049-49E, Aukštis: 2 m

Dabartinis oras

Ataskaita buvo paskelbta 1 valandą ir 49 minutes, ne 15:00 UTC
Vėjas 6 kt iš Pietų
Temperatūra 24°C
Slėgis 1019 hPa
Mažai debesys ne aukštis 1700 ft

METAR: FMMS 241500Z 18006KT FEW017 24/// Q1019

Laikas: 19:49 (16:49 UTC)

Prognozė

Ataskaita buvo paskelbta 5 valandos ir 49 minutes, ne 11:00 UTC
Prognozė galioja nuo 24 metu 12 UTC su 25 metu 12 UTC
Vėjas 12 kt iš Pietų/Pietryčių
Matomumas 10 km arba daugiau
Išsisklaidę debesys ne aukštis 1700 ft
Tikimybė 30% :
Laikinai
nuo 25 metu 03 UTC su 25 metu 12 UTC
Matomumas: 4500 m
lietus

TAF: FMMS 241100Z 2412/2512 16012KT 9999 SCT017 PROB30 TEMPO 2503/2512 4500 SHRA

Orai ataskaitas ir orų prognozės (METAR, TAF).

turimą stotys yra geltonos ir raudonos taškus žemėlapyje.

Perkelti pele per norėdami pamatyti stoties vardą.

Tada spustelėkite, norėdami matyti oro stebėjimo ir prognozės.

Norėdami pakeisti žemėlapį: spustelėkite ant žalios mygtukų su juodo kryžiaus žemyn,; žalią mygtuką su brūkšneliu, jei norite nutolinti; arba žalių rodyklių gretimoms žemėlapius.


METAR-TAF: